createdAt,value
2019-01-21T00:06:40.377Z,10.97
2019-01-21T00:09:17.838Z,11.30
2019-01-21T00:15:56.124Z,33.30
2019-01-21T00:18:47.686Z,34.73
2019-01-21T00:25:08.618Z,37.27
2019-01-21T00:35:08.257Z,11.17
2019-01-21T00:38:29.012Z,10.93
2019-01-21T00:41:22.663Z,9.63
2019-01-21T00:44:45.083Z,10.00
2019-01-21T00:47:56.337Z,9.33
2019-01-21T00:50:25.226Z,10.17
2019-01-21T00:52:53.981Z,9.63
2019-01-21T00:55:22.939Z,11.07
2019-01-21T00:57:51.750Z,13.23
2019-01-21T01:00:22.640Z,14.10
2019-01-21T01:02:51.685Z,12.77
2019-01-21T01:05:21.033Z,13.20
2019-01-21T01:07:52.606Z,12.20
2019-01-21T01:10:21.462Z,10.67
2019-01-21T01:12:50.353Z,10.90
2019-01-21T01:15:19.153Z,11.30
2019-01-21T01:17:48.053Z,13.60
2019-01-21T01:20:18.981Z,12.83
2019-01-21T01:22:47.873Z,13.30
2019-01-21T01:25:16.987Z,12.10
2019-01-21T01:27:45.962Z,12.63
2019-01-21T01:30:16.050Z,14.40
2019-01-21T01:32:45.246Z,13.00
2019-01-21T01:35:15.689Z,13.93
2019-01-21T01:37:44.930Z,12.90
2019-01-21T01:40:18.808Z,11.70
2019-01-21T01:42:48.117Z,12.50
2019-01-21T01:45:20.547Z,12.77
2019-01-21T01:47:54.159Z,11.77
2019-01-21T01:50:23.034Z,11.97
2019-01-21T01:52:51.786Z,12.70
2019-01-21T01:55:22.253Z,12.00
2019-01-21T01:57:53.418Z,11.97
2019-01-21T02:00:22.329Z,12.27
2019-01-21T02:02:51.070Z,10.90
2019-01-21T02:05:19.829Z,10.63
2019-01-21T02:07:48.714Z,11.43
2019-01-21T02:10:17.545Z,11.13
2019-01-21T02:12:46.627Z,13.63
2019-01-21T02:15:15.646Z,13.07
2019-01-21T02:17:44.668Z,12.40
2019-01-21T02:20:15.671Z,11.63
2019-01-21T02:22:46.116Z,11.57
2019-01-21T02:25:15.423Z,11.60
2019-01-21T02:28:15.666Z,11.40
2019-01-21T02:31:20.606Z,10.57
2019-01-21T02:34:15.218Z,11.03
2019-01-21T02:37:23.531Z,11.13
2019-01-21T02:40:08.185Z,11.83
2019-01-21T02:43:03.383Z,11.30
2019-01-21T02:46:07.357Z,11.63
2019-01-21T02:49:13.795Z,10.77
2019-01-21T02:52:20.282Z,11.73
2019-01-21T02:55:04.174Z,11.63
2019-01-21T02:58:10.331Z,10.30
2019-01-21T03:01:03.414Z,11.13
2019-01-21T03:03:41.133Z,11.73
2019-01-21T03:06:32.771Z,10.80
2019-01-21T03:09:50.037Z,10.90
2019-01-21T03:13:04.734Z,10.83
2019-01-21T03:15:45.105Z,9.70
2019-01-21T03:18:51.875Z,10.67
2019-01-21T03:21:56.770Z,12.47
2019-01-21T03:24:59.771Z,12.30
2019-01-21T03:28:04.646Z,11.80
2019-01-21T03:30:51.005Z,12.13
2019-01-21T03:34:06.026Z,10.83
2019-01-21T03:37:30.305Z,12.17
2019-01-21T03:40:14.250Z,11.70
2019-01-21T03:43:21.670Z,13.03
2019-01-21T03:46:37.494Z,11.37
2019-01-21T03:49:16.566Z,11.30
2019-01-21T03:52:20.864Z,12.10
2019-01-21T03:54:57.854Z,12.20
2019-01-21T03:57:35.951Z,11.83
2019-01-21T04:00:42.548Z,12.57
2019-01-21T04:03:57.705Z,12.40
2019-01-21T04:06:42.084Z,12.03
2019-01-21T04:10:02.673Z,11.60
2019-01-21T04:12:58.806Z,10.53
2019-01-21T04:16:00.258Z,12.10
2019-01-21T04:19:10.949Z,10.77
2019-01-21T04:22:04.889Z,11.43
2019-01-21T04:25:14.536Z,13.27
2019-01-21T04:28:21.311Z,12.07
2019-01-21T04:31:37.921Z,9.90
2019-01-21T04:34:50.973Z,11.43
2019-01-21T04:37:49.237Z,10.53
2019-01-21T04:40:54.481Z,12.23
2019-01-21T04:44:10.985Z,9.93
2019-01-21T04:47:21.775Z,11.43
2019-01-21T04:50:30.081Z,10.73
2019-01-21T04:53:27.540Z,10.77
2019-01-21T04:56:45.586Z,11.23
2019-01-21T04:59:31.668Z,11.37
2019-01-21T05:02:37.561Z,11.33
2019-01-21T05:05:28.016Z,10.43
2019-01-21T05:08:32.896Z,10.97
2019-01-21T05:11:30.618Z,11.20
2019-01-21T05:14:39.966Z,10.73
2019-01-21T05:17:38.417Z,12.37
2019-01-21T05:20:59.709Z,11.50
2019-01-21T05:23:53.510Z,11.23
2019-01-21T05:26:38.186Z,13.20
2019-01-21T05:29:42.282Z,12.07
2019-01-21T05:32:54.995Z,11.77
2019-01-21T05:35:56.323Z,11.37
2019-01-21T05:39:09.623Z,12.10
2019-01-21T05:42:21.097Z,11.90
2019-01-21T05:45:29.085Z,11.17
2019-01-21T05:48:11.653Z,12.10
2019-01-21T05:51:36.105Z,11.80
2019-01-21T05:54:44.374Z,10.93
2019-01-21T05:57:45.429Z,12.30
2019-01-21T06:00:44.259Z,12.60
2019-01-21T06:03:39.092Z,11.50
2019-01-21T06:06:45.226Z,11.43
2019-01-21T06:09:37.231Z,11.93
2019-01-21T06:12:35.694Z,11.00
2019-01-21T06:15:35.511Z,12.40
2019-01-21T06:18:33.261Z,12.37
2019-01-21T06:21:46.147Z,11.73
2019-01-21T06:24:50.862Z,12.00
2019-01-21T06:27:34.377Z,12.33
2019-01-21T06:30:41.666Z,11.13
2019-01-21T06:33:53.976Z,11.73
2019-01-21T06:37:04.116Z,11.93
2019-01-21T06:39:53.015Z,12.73
2019-01-21T06:43:14.936Z,10.80
2019-01-21T06:45:58.589Z,12.73
2019-01-21T06:48:54.205Z,11.63
2019-01-21T06:52:17.593Z,11.97
2019-01-21T06:55:18.961Z,11.90
2019-01-21T06:58:22.925Z,11.87
2019-01-21T07:01:10.141Z,13.33
2019-01-21T07:04:26.377Z,12.93
2019-01-21T07:07:26.125Z,12.63
2019-01-21T07:10:18.779Z,12.43
2019-01-21T07:13:08.958Z,12.47
2019-01-21T07:16:00.473Z,13.23
2019-01-21T07:19:13.784Z,13.23
2019-01-21T07:22:48.478Z,11.93
2019-01-21T07:25:48.990Z,11.50
2019-01-21T07:28:37.971Z,13.13
2019-01-21T07:31:36.766Z,10.47
2019-01-21T07:34:28.874Z,12.17
2019-01-21T07:37:36.118Z,11.83
2019-01-21T07:40:42.353Z,12.87
2019-01-21T07:43:33.598Z,11.50
2019-01-21T07:46:49.995Z,10.80
2019-01-21T07:49:52.993Z,12.80
2019-01-21T07:52:58.718Z,13.07
2019-01-21T07:56:04.046Z,11.60
2019-01-21T07:59:20.165Z,12.63
2019-01-21T08:02:25.161Z,13.00
2019-01-21T08:05:07.837Z,11.30
2019-01-21T08:07:52.755Z,12.90
2019-01-21T08:11:02.825Z,13.70
2019-01-21T08:13:56.577Z,12.53
2019-01-21T08:17:07.551Z,12.07
2019-01-21T08:20:00.334Z,12.77
2019-01-21T08:23:11.317Z,12.90
2019-01-21T08:26:21.598Z,11.27
2019-01-21T08:29:12.811Z,12.07
2019-01-21T08:31:49.346Z,13.27
2019-01-21T08:34:41.701Z,14.47
2019-01-21T08:37:26.050Z,13.97
2019-01-21T08:40:35.345Z,14.53
2019-01-21T08:44:06.983Z,12.40
2019-01-21T08:47:17.096Z,14.23
2019-01-21T08:50:35.446Z,11.57
2019-01-21T08:53:53.498Z,13.93
2019-01-21T08:56:42.122Z,12.77
2019-01-21T08:59:20.609Z,12.77
2019-01-21T09:02:21.609Z,15.33
2019-01-21T09:05:26.734Z,13.47
2019-01-21T09:08:39.233Z,14.97
2019-01-21T09:11:55.361Z,13.33
2019-01-21T09:14:49.446Z,14.57
2019-01-21T09:17:44.902Z,13.63
2019-01-21T09:20:45.218Z,14.67
2019-01-21T09:23:44.942Z,14.63
2019-01-21T09:26:49.631Z,13.40
2019-01-21T09:29:31.646Z,14.77
2019-01-21T09:32:42.267Z,15.40
2019-01-21T09:35:53.056Z,14.53
2019-01-21T09:39:04.178Z,14.10
2019-01-21T09:42:02.213Z,14.80
2019-01-21T09:44:54.799Z,14.47
2019-01-21T09:47:22.281Z,14.80
2019-01-21T09:49:51.598Z,15.30
2019-01-21T09:52:21.552Z,17.73
2019-01-21T09:54:51.973Z,17.07
2019-01-21T09:57:24.708Z,17.83
2019-01-21T09:59:55.949Z,16.60
2019-01-21T10:02:32.918Z,16.80
2019-01-21T10:05:06.393Z,17.07
2019-01-21T10:08:01.405Z,17.03
2019-01-21T10:11:12.010Z,16.03
2019-01-21T10:14:39.902Z,14.90
2019-01-21T10:17:24.386Z,15.97
2019-01-21T10:20:32.024Z,15.27
2019-01-21T10:23:48.508Z,14.63
2019-01-21T10:26:41.850Z,12.97
2019-01-21T10:29:39.660Z,14.57
2019-01-21T10:32:53.439Z,14.07
2019-01-21T10:36:20.935Z,13.97
2019-01-21T10:39:23.278Z,15.33
2019-01-21T10:42:30.392Z,15.47
2019-01-21T10:45:36.261Z,15.23
2019-01-21T10:48:58.110Z,15.37
2019-01-21T10:51:47.700Z,15.17
2019-01-21T10:54:54.898Z,14.03
2019-01-21T10:58:03.473Z,14.10
2019-01-21T11:00:56.305Z,15.03
2019-01-21T11:03:55.633Z,15.10
2019-01-21T11:07:02.302Z,14.97
2019-01-21T11:09:40.291Z,14.07
2019-01-21T11:12:58.485Z,14.00
2019-01-21T11:15:32.528Z,14.27
2019-01-21T11:18:26.613Z,13.17
2019-01-21T11:21:32.729Z,14.10
2019-01-21T11:24:50.819Z,14.90
2019-01-21T11:27:55.047Z,14.13
2019-01-21T11:30:48.629Z,14.80
2019-01-21T11:33:59.042Z,14.27
2019-01-21T11:37:24.165Z,14.10
2019-01-21T11:40:12.793Z,14.33
2019-01-21T11:43:27.299Z,13.77
2019-01-21T11:46:22.773Z,13.50
2019-01-21T11:49:21.216Z,14.07
2019-01-21T11:52:52.553Z,13.33
2019-01-21T11:56:00.509Z,14.03
2019-01-21T11:58:57.049Z,13.97
2019-01-21T12:01:44.178Z,13.30
2019-01-21T12:04:34.889Z,12.87
2019-01-21T12:07:26.978Z,12.23
2019-01-21T12:10:26.150Z,12.87
2019-01-21T12:13:16.825Z,12.33
2019-01-21T12:16:13.232Z,11.90
2019-01-21T12:19:10.725Z,12.00
2019-01-21T12:22:10.817Z,12.63
2019-01-21T12:24:55.254Z,11.93
2019-01-21T12:27:57.506Z,11.03
2019-01-21T12:31:07.153Z,11.63
2019-01-21T12:34:14.437Z,11.60
2019-01-21T12:37:10.789Z,11.03
2019-01-21T12:40:23.842Z,12.07
2019-01-21T12:43:22.095Z,12.67
2019-01-21T12:46:44.026Z,12.53
2019-01-21T12:49:40.506Z,11.90
2019-01-21T12:52:46.735Z,11.00
2019-01-21T12:55:55.803Z,11.07
2019-01-21T12:58:51.937Z,10.40
2019-01-21T13:01:56.788Z,10.97
2019-01-21T13:04:48.698Z,10.77
2019-01-21T13:08:02.704Z,10.30
2019-01-21T13:11:04.490Z,9.50
2019-01-21T13:14:17.988Z,11.73
2019-01-21T13:17:23.757Z,11.13
2019-01-21T13:20:23.937Z,10.57
2019-01-21T13:23:31.651Z,10.80
2019-01-21T13:27:30.877Z,11.53
2019-01-21T13:38:10.223Z,11.47
2019-01-21T13:48:42.241Z,11.73
2019-01-21T13:49:07.836Z,11.50
2019-01-21T13:51:55.046Z,12.03
2019-01-21T13:54:49.206Z,10.63
2019-01-21T13:57:57.436Z,11.13
2019-01-21T14:00:35.053Z,11.37
2019-01-21T14:03:38.802Z,11.00
2019-01-21T14:06:43.290Z,10.83
2019-01-21T14:09:36.786Z,10.27
2019-01-21T14:12:25.420Z,11.20
2019-01-21T14:15:24.341Z,11.23
2019-01-21T14:18:30.591Z,10.90
2019-01-21T14:21:31.276Z,10.27
2019-01-21T14:24:26.814Z,11.00
2019-01-21T14:27:04.413Z,10.67
2019-01-21T14:29:47.037Z,11.67
2019-01-21T14:32:47.632Z,10.53
2019-01-21T14:35:51.564Z,11.10
2019-01-21T14:38:46.114Z,10.50
2019-01-21T14:42:14.577Z,11.37
2019-01-21T14:45:23.933Z,11.70
2019-01-21T14:48:30.180Z,12.60
2019-01-21T14:51:47.641Z,13.53
2019-01-21T14:54:53.374Z,11.93
2019-01-21T14:57:46.025Z,12.23
2019-01-21T15:00:30.965Z,11.37
2019-01-21T15:03:49.522Z,11.77
2019-01-21T15:06:45.933Z,10.40
2019-01-21T15:09:31.031Z,10.70
2019-01-21T15:12:47.438Z,11.50
2019-01-21T15:15:32.911Z,11.10
2019-01-21T15:18:22.894Z,10.27
2019-01-21T15:21:00.257Z,10.37
2019-01-21T15:23:50.856Z,11.37
2019-01-21T15:26:58.595Z,10.03
2019-01-21T15:30:18.642Z,10.67
2019-01-21T15:33:06.870Z,11.23
2019-01-21T15:36:13.858Z,10.87
2019-01-21T15:39:10.037Z,10.57
2019-01-21T15:42:20.126Z,11.00
2019-01-21T15:45:20.665Z,11.73
2019-01-21T15:48:15.438Z,11.63
2019-01-21T15:51:05.129Z,10.93
2019-01-21T15:54:28.401Z,10.80
2019-01-21T15:57:47.461Z,11.67
2019-01-21T16:01:16.346Z,10.53
2019-01-21T16:04:01.977Z,10.07
2019-01-21T16:06:57.522Z,10.97
2019-01-21T16:09:48.566Z,11.20
2019-01-21T16:12:54.200Z,10.83
2019-01-21T16:15:52.166Z,10.43
2019-01-21T16:18:28.333Z,10.60
2019-01-21T16:21:14.345Z,11.23
2019-01-21T16:24:24.849Z,11.63
2019-01-21T16:27:06.513Z,14.33
2019-01-21T16:29:45.659Z,11.13
2019-01-21T16:32:28.853Z,9.07
2019-01-21T16:35:14.193Z,11.27
2019-01-21T16:38:07.269Z,11.67
2019-01-21T16:41:14.827Z,10.37
2019-01-21T16:43:43.661Z,12.30
2019-01-21T16:46:12.634Z,12.70
2019-01-21T16:48:41.553Z,12.17
2019-01-21T16:51:10.449Z,12.77
2019-01-21T16:54:28.648Z,11.43
2019-01-21T16:57:01.780Z,12.83
2019-01-21T16:59:38.826Z,12.77
2019-01-21T17:02:51.031Z,12.47
2019-01-21T17:05:20.155Z,12.30
2019-01-21T17:07:54.803Z,13.00
2019-01-21T17:10:23.571Z,12.70
2019-01-21T17:12:52.401Z,14.80
2019-01-21T17:15:21.118Z,13.80
2019-01-21T17:17:49.957Z,13.17
2019-01-21T17:20:20.417Z,13.13
2019-01-21T17:22:49.354Z,13.57
2019-01-21T17:25:18.182Z,14.27
2019-01-21T17:27:46.946Z,13.03
2019-01-21T17:30:16.143Z,12.67
2019-01-21T17:32:45.082Z,13.67
2019-01-21T17:35:14.033Z,13.60
2019-01-21T17:37:42.961Z,15.33
2019-01-21T17:40:13.538Z,13.70
2019-01-21T17:42:43.391Z,13.90
2019-01-21T17:45:16.857Z,14.23
2019-01-21T17:47:47.025Z,14.53
2019-01-21T17:50:17.056Z,15.83
2019-01-21T17:52:45.825Z,13.60
2019-01-21T17:55:18.634Z,14.30
2019-01-21T17:57:48.711Z,15.63
2019-01-21T18:00:21.476Z,15.73
2019-01-21T18:02:53.101Z,14.03
2019-01-21T18:05:23.193Z,16.23
2019-01-21T18:07:55.725Z,14.83
2019-01-21T18:10:24.638Z,14.67
2019-01-21T18:13:09.329Z,13.93
2019-01-21T18:15:43.849Z,14.23
2019-01-21T18:18:18.110Z,15.70
2019-01-21T18:20:48.847Z,13.70
2019-01-21T18:27:22.802Z,14.60
2019-01-21T18:29:56.864Z,13.87
2019-01-21T18:32:26.754Z,17.47
2019-01-21T18:34:55.530Z,15.67
2019-01-21T18:37:24.378Z,17.83
2019-01-21T18:39:54.553Z,15.90
2019-01-21T18:42:23.298Z,16.80
2019-01-21T18:44:52.098Z,17.40
2019-01-21T18:47:22.214Z,16.83
2019-01-21T18:49:51.029Z,16.67
2019-01-21T18:52:20.638Z,15.83
2019-01-21T18:54:50.786Z,15.43
2019-01-21T18:57:27.221Z,15.17
2019-01-21T18:59:56.025Z,16.07
2019-01-21T19:02:36.755Z,16.97
2019-01-21T19:05:06.211Z,17.43
2019-01-21T19:07:34.943Z,16.90
2019-01-21T19:10:08.658Z,16.30
2019-01-21T19:12:37.836Z,16.00
2019-01-21T19:15:20.352Z,17.77
2019-01-21T19:18:01.223Z,16.97
2019-01-21T19:20:37.770Z,16.10
2019-01-21T19:23:07.691Z,16.93
2019-01-21T19:25:36.602Z,17.53
2019-01-21T19:28:05.509Z,16.57
2019-01-21T19:30:39.668Z,18.70
2019-01-21T19:33:08.445Z,18.60
2019-01-21T19:35:41.622Z,17.00
2019-01-21T19:38:10.503Z,18.57
2019-01-21T19:40:39.281Z,18.50
2019-01-21T19:43:42.275Z,18.43
2019-01-21T19:46:13.786Z,18.37
2019-01-21T19:48:49.082Z,18.00
2019-01-21T19:51:23.713Z,22.40
2019-01-21T19:53:58.951Z,16.70
2019-01-21T19:56:27.686Z,17.77
2019-01-21T19:59:00.061Z,16.97
2019-01-21T20:01:28.946Z,18.53
2019-01-21T20:03:57.786Z,18.70
2019-01-21T20:06:26.585Z,18.97
2019-01-21T20:09:41.807Z,18.50
2019-01-21T20:12:15.653Z,17.97
2019-01-21T20:14:44.449Z,18.03
2019-01-21T20:17:15.161Z,17.47
2019-01-21T20:19:44.058Z,17.77
2019-01-21T20:22:13.075Z,18.67
2019-01-21T20:24:44.162Z,19.00
2019-01-21T20:27:25.465Z,18.33
2019-01-21T20:29:54.393Z,18.10
2019-01-21T20:32:23.217Z,19.33
2019-01-21T20:34:58.114Z,19.33
2019-01-21T20:37:26.953Z,17.43
2019-01-21T20:39:59.144Z,18.97
2019-01-21T20:42:27.881Z,18.00
2019-01-21T20:44:56.679Z,18.40
2019-01-21T20:47:25.401Z,18.47
2019-01-21T20:49:54.237Z,17.53
2019-01-21T20:52:23.483Z,19.10
2019-01-21T20:54:53.762Z,18.37
2019-01-21T20:57:22.917Z,16.27
2019-01-21T21:00:00.869Z,17.57
2019-01-21T21:02:31.828Z,18.73
2019-01-21T21:05:00.642Z,18.03
2019-01-21T21:07:29.563Z,18.13
2019-01-21T21:09:58.357Z,18.30
2019-01-21T21:12:32.981Z,17.73
2019-01-21T21:15:01.784Z,17.97
2019-01-21T21:17:31.922Z,18.43
2019-01-21T21:20:00.667Z,17.47
2019-01-21T21:22:38.769Z,18.23
2019-01-21T21:25:10.013Z,18.07
2019-01-21T21:27:38.885Z,17.23
2019-01-21T21:30:15.138Z,18.60
2019-01-21T21:32:44.789Z,17.70
2019-01-21T21:35:13.931Z,17.53
2019-01-21T21:37:44.475Z,17.13
2019-01-21T21:40:15.351Z,17.63
2019-01-21T21:42:44.558Z,17.57
2019-01-21T21:45:14.837Z,17.60
2019-01-21T21:47:44.826Z,18.10
2019-01-21T21:50:16.247Z,18.53
2019-01-21T21:52:49.455Z,17.33
2019-01-21T21:55:20.395Z,18.10
2019-01-21T21:57:50.384Z,16.60
2019-01-21T22:00:21.826Z,17.47
2019-01-21T22:02:50.860Z,15.90
2019-01-21T22:05:19.822Z,17.63
2019-01-21T22:07:48.797Z,17.47
2019-01-21T22:10:20.403Z,17.90
2019-01-21T22:12:50.050Z,16.80
2019-01-21T22:15:20.309Z,16.47
2019-01-21T22:17:49.197Z,18.10
2019-01-21T22:20:19.921Z,18.53
2019-01-21T22:22:48.838Z,19.57
2019-01-21T22:25:18.183Z,18.03
2019-01-21T22:27:47.027Z,17.57
2019-01-21T22:30:18.272Z,18.17
2019-01-21T22:32:47.072Z,18.43
2019-01-21T22:35:15.846Z,18.63
2019-01-21T22:37:45.182Z,17.67
2019-01-21T22:40:15.926Z,18.43
2019-01-21T22:42:44.653Z,19.20
2019-01-21T22:45:14.525Z,20.03
2019-01-21T22:47:43.633Z,20.23
2019-01-21T22:50:13.791Z,20.47
2019-01-21T22:52:42.613Z,19.13
2019-01-21T22:55:12.914Z,21.17
2019-01-21T22:57:41.741Z,21.57
2019-01-21T23:00:39.389Z,19.50
2019-01-21T23:03:08.331Z,20.23
2019-01-21T23:05:37.137Z,19.73
2019-01-21T23:08:06.155Z,16.67
2019-01-21T23:10:35.705Z,20.13
2019-01-21T23:13:05.216Z,20.00
2019-01-21T23:15:34.094Z,20.93
2019-01-21T23:18:05.903Z,20.57
2019-01-21T23:20:34.716Z,18.63
2019-01-21T23:23:03.541Z,17.73
2019-01-21T23:25:32.297Z,19.67
2019-01-21T23:28:01.107Z,19.53
2019-01-21T23:30:29.870Z,19.27
2019-01-21T23:32:58.613Z,19.93
2019-01-21T23:35:27.486Z,20.10
2019-01-21T23:37:56.538Z,20.03
2019-01-21T23:40:25.347Z,21.67
2019-01-21T23:42:54.096Z,23.03
2019-01-21T23:45:23.053Z,24.20
2019-01-21T23:47:51.814Z,23.43
2019-01-21T23:50:20.618Z,20.97
2019-01-21T23:52:55.788Z,20.40
2019-01-21T23:55:20.200Z,21.50
2019-01-21T23:57:48.977Z,20.97
